createdAt,value
2017-08-13T00:00:28.874Z,0
2017-08-13T00:01:09.766Z,0
2017-08-13T00:01:50.645Z,0
2017-08-13T00:02:31.541Z,0
2017-08-13T00:03:12.429Z,0
2017-08-13T00:03:53.301Z,0
2017-08-13T00:04:34.196Z,0
2017-08-13T00:05:15.091Z,0
2017-08-13T00:05:55.977Z,0
2017-08-13T00:06:36.881Z,0
2017-08-13T00:07:17.774Z,0
2017-08-13T00:07:58.664Z,0
2017-08-13T00:08:39.567Z,0
2017-08-13T00:09:20.451Z,0
2017-08-13T00:10:01.343Z,0
2017-08-13T00:10:42.238Z,0
2017-08-13T00:11:23.130Z,0
2017-08-13T00:12:04.026Z,0
2017-08-13T00:12:44.917Z,0
2017-08-13T00:13:25.810Z,0
2017-08-13T00:14:06.700Z,0
2017-08-13T00:14:47.593Z,0
2017-08-13T00:15:28.481Z,0
2017-08-13T00:16:09.375Z,0
2017-08-13T00:16:50.275Z,0
2017-08-13T00:17:31.159Z,0
2017-08-13T00:18:12.043Z,0
2017-08-13T00:18:52.943Z,0
2017-08-13T00:19:33.833Z,0
2017-08-13T00:20:14.730Z,0
2017-08-13T00:20:55.623Z,0
2017-08-13T00:21:36.510Z,0
2017-08-13T00:22:17.405Z,0
2017-08-13T00:22:58.309Z,0
2017-08-13T00:23:39.202Z,0
2017-08-13T00:24:20.102Z,0
2017-08-13T00:25:00.984Z,0
2017-08-13T00:25:41.866Z,0
2017-08-13T00:26:22.752Z,0
2017-08-13T00:27:03.657Z,0
2017-08-13T00:27:44.564Z,0
2017-08-13T00:28:25.463Z,0
2017-08-13T00:29:06.345Z,0
2017-08-13T00:29:47.241Z,0
2017-08-13T00:30:28.149Z,0
2017-08-13T00:31:09.020Z,0
2017-08-13T00:31:49.906Z,0
2017-08-13T00:32:30.814Z,0
2017-08-13T00:33:11.730Z,0
2017-08-13T00:33:52.646Z,0
2017-08-13T00:34:33.507Z,0
2017-08-13T00:35:14.384Z,0
2017-08-13T00:35:55.287Z,0
2017-08-13T00:36:36.170Z,0
2017-08-13T00:37:17.054Z,0
2017-08-13T00:37:57.946Z,0
2017-08-13T00:38:38.847Z,0
2017-08-13T00:39:19.723Z,0
2017-08-13T00:40:00.589Z,0
2017-08-13T00:40:41.483Z,0
2017-08-13T00:41:22.381Z,0
2017-08-13T00:42:03.267Z,0
2017-08-13T00:42:44.204Z,0
2017-08-13T00:43:25.072Z,0
2017-08-13T00:44:05.954Z,0
2017-08-13T00:44:46.863Z,0
2017-08-13T00:45:27.750Z,0
2017-08-13T00:46:08.640Z,0
2017-08-13T00:46:49.559Z,0
2017-08-13T00:47:30.437Z,0
2017-08-13T00:48:11.324Z,0
2017-08-13T00:48:52.217Z,0
2017-08-13T00:49:33.101Z,0
2017-08-13T00:50:13.993Z,0
2017-08-13T00:50:54.898Z,0
2017-08-13T00:51:35.785Z,0
2017-08-13T00:52:16.669Z,0
2017-08-13T00:52:57.563Z,0
2017-08-13T00:53:38.454Z,0
2017-08-13T00:54:19.334Z,0
2017-08-13T00:55:00.216Z,0
2017-08-13T00:55:41.130Z,0
2017-08-13T00:56:22.010Z,0
2017-08-13T00:57:02.916Z,0
2017-08-13T00:57:43.808Z,0
2017-08-13T00:58:24.681Z,0
2017-08-13T00:59:05.589Z,0
2017-08-13T00:59:46.483Z,0
2017-08-13T01:00:27.365Z,0
2017-08-13T01:01:08.256Z,0
2017-08-13T01:01:49.154Z,0
2017-08-13T01:02:30.046Z,0
2017-08-13T01:03:10.951Z,0
2017-08-13T01:03:51.834Z,0
2017-08-13T01:04:32.721Z,0
2017-08-13T01:05:13.624Z,0
2017-08-13T01:05:54.518Z,0
2017-08-13T01:06:35.401Z,0
2017-08-13T01:07:16.292Z,0
2017-08-13T01:07:57.189Z,0
2017-08-13T01:08:38.074Z,0
2017-08-13T01:09:18.980Z,0
2017-08-13T01:09:59.881Z,0
2017-08-13T01:10:40.765Z,0
2017-08-13T01:11:21.665Z,0
2017-08-13T01:12:02.546Z,0
2017-08-13T01:12:43.432Z,0
2017-08-13T01:13:24.317Z,0
2017-08-13T01:14:05.217Z,0
2017-08-13T01:14:46.148Z,0
2017-08-13T01:15:27.041Z,0
2017-08-13T01:16:07.935Z,0
2017-08-13T01:16:48.831Z,0
2017-08-13T01:17:29.717Z,0
2017-08-13T01:18:10.603Z,0
2017-08-13T01:18:51.503Z,0
2017-08-13T01:19:32.409Z,0
2017-08-13T01:20:13.278Z,0
2017-08-13T01:20:54.212Z,0
2017-08-13T01:21:35.109Z,0
2017-08-13T01:22:16.002Z,0
2017-08-13T01:22:56.892Z,0
2017-08-13T01:23:37.775Z,0
2017-08-13T01:24:18.677Z,0
2017-08-13T01:24:59.606Z,0
2017-08-13T01:25:40.511Z,0
2017-08-13T01:26:21.389Z,0
2017-08-13T01:27:02.278Z,0
2017-08-13T01:27:43.173Z,0
2017-08-13T01:28:24.066Z,0
2017-08-13T01:29:04.956Z,0
2017-08-13T01:29:45.858Z,0
2017-08-13T01:30:26.753Z,0
2017-08-13T01:31:07.637Z,0
2017-08-13T01:31:48.535Z,0
2017-08-13T01:32:29.419Z,0
2017-08-13T01:33:10.333Z,0
2017-08-13T01:33:51.227Z,0
2017-08-13T01:34:32.110Z,0
2017-08-13T01:35:13.004Z,0
2017-08-13T01:35:53.896Z,0
2017-08-13T01:36:34.794Z,0
2017-08-13T01:37:15.689Z,0
2017-08-13T01:37:56.578Z,0
2017-08-13T01:38:37.471Z,0
2017-08-13T01:39:18.359Z,0
2017-08-13T01:39:59.252Z,0
2017-08-13T01:40:40.145Z,0
2017-08-13T01:41:21.031Z,0
2017-08-13T01:42:01.917Z,0
2017-08-13T01:42:42.806Z,0
2017-08-13T01:43:23.708Z,0
2017-08-13T01:44:04.603Z,0
2017-08-13T01:44:45.501Z,0
2017-08-13T01:45:26.390Z,0
2017-08-13T01:46:07.272Z,0
2017-08-13T01:46:48.161Z,0
2017-08-13T01:47:29.048Z,0
2017-08-13T01:48:09.942Z,0
2017-08-13T01:48:50.848Z,0
2017-08-13T01:49:31.721Z,0
2017-08-13T01:50:12.608Z,0
2017-08-13T01:50:53.501Z,0
2017-08-13T01:51:34.392Z,0
2017-08-13T01:52:15.303Z,0
2017-08-13T01:52:56.205Z,0
2017-08-13T01:53:37.075Z,0
2017-08-13T01:54:17.968Z,0
2017-08-13T01:54:58.860Z,0
2017-08-13T01:55:39.752Z,0
2017-08-13T01:56:20.685Z,0
2017-08-13T01:57:01.571Z,0
2017-08-13T01:57:42.449Z,0
2017-08-13T01:58:23.337Z,0
2017-08-13T01:59:04.231Z,0
2017-08-13T01:59:45.142Z,0
2017-08-13T02:00:26.035Z,0
2017-08-13T02:01:06.921Z,0
2017-08-13T02:01:47.815Z,0
2017-08-13T02:02:28.716Z,0
2017-08-13T02:03:09.607Z,0
2017-08-13T02:03:50.502Z,0
2017-08-13T02:04:31.395Z,0
2017-08-13T02:05:12.283Z,0
2017-08-13T02:05:53.180Z,0
2017-08-13T02:06:34.064Z,0
2017-08-13T02:07:14.947Z,0
2017-08-13T02:07:55.840Z,0
2017-08-13T02:08:36.727Z,0
2017-08-13T02:09:17.622Z,0
2017-08-13T02:09:58.521Z,0
2017-08-13T02:10:39.418Z,0
2017-08-13T02:11:20.300Z,0
2017-08-13T02:12:01.194Z,0
2017-08-13T02:12:42.081Z,0
2017-08-13T02:13:22.969Z,0
2017-08-13T02:14:03.854Z,0
2017-08-13T02:14:44.748Z,0
2017-08-13T02:15:25.635Z,0
2017-08-13T02:16:06.526Z,0
2017-08-13T02:16:47.414Z,0
2017-08-13T02:17:28.321Z,0
2017-08-13T02:18:09.203Z,0
2017-08-13T02:18:50.090Z,0
2017-08-13T02:19:30.981Z,0
2017-08-13T02:20:11.853Z,0
2017-08-13T02:20:52.747Z,0
2017-08-13T02:21:33.622Z,0
2017-08-13T02:22:14.521Z,0
2017-08-13T02:22:55.410Z,0
2017-08-13T02:23:36.290Z,0
2017-08-13T02:24:17.209Z,0
2017-08-13T02:24:58.090Z,0
2017-08-13T02:25:38.969Z,0
2017-08-13T02:26:19.860Z,0
2017-08-13T02:27:00.745Z,0
2017-08-13T02:27:41.635Z,0
2017-08-13T02:28:22.530Z,0
2017-08-13T02:29:03.432Z,0
2017-08-13T02:29:44.314Z,0
2017-08-13T02:30:25.207Z,0
2017-08-13T02:31:06.100Z,0
2017-08-13T02:31:46.979Z,0
2017-08-13T02:32:27.878Z,0
2017-08-13T02:33:08.840Z,0
2017-08-13T02:33:49.733Z,0
2017-08-13T02:34:30.627Z,0
2017-08-13T02:35:11.517Z,0
2017-08-13T02:35:52.420Z,0
2017-08-13T02:36:33.296Z,0
2017-08-13T02:37:14.172Z,0
2017-08-13T02:37:55.076Z,0
2017-08-13T02:38:35.968Z,0
2017-08-13T02:39:16.867Z,0
2017-08-13T02:39:57.770Z,0
2017-08-13T02:40:38.657Z,0
2017-08-13T02:41:19.568Z,0
2017-08-13T02:42:00.462Z,0
2017-08-13T02:42:41.354Z,0
2017-08-13T02:43:22.265Z,0
2017-08-13T02:44:03.151Z,0
2017-08-13T02:44:44.063Z,0
2017-08-13T02:45:24.960Z,0
2017-08-13T02:46:05.836Z,0
2017-08-13T02:46:46.737Z,0
2017-08-13T02:47:27.623Z,0
2017-08-13T02:48:08.526Z,0
2017-08-13T02:48:49.427Z,0
2017-08-13T02:50:58.438Z,0
2017-08-13T02:51:39.350Z,0
2017-08-13T02:52:20.243Z,0
2017-08-13T02:53:01.133Z,0
2017-08-13T02:53:42.019Z,0
2017-08-13T02:54:22.908Z,0
2017-08-13T02:55:03.799Z,0
2017-08-13T02:55:44.686Z,0
2017-08-13T02:56:25.590Z,0
2017-08-13T02:57:06.472Z,0
2017-08-13T02:57:47.361Z,0
2017-08-13T02:58:28.240Z,0
2017-08-13T02:59:09.131Z,0
2017-08-13T02:59:50.016Z,0
2017-08-13T03:00:30.904Z,0
2017-08-13T03:01:11.794Z,0
2017-08-13T03:01:52.690Z,0
2017-08-13T03:02:33.564Z,0
2017-08-13T03:03:14.448Z,0
2017-08-13T03:03:55.351Z,0
2017-08-13T03:04:36.243Z,0
2017-08-13T03:05:17.115Z,0
2017-08-13T03:05:58.005Z,0
2017-08-13T03:06:38.889Z,0
2017-08-13T03:07:19.776Z,0
2017-08-13T03:08:00.672Z,0
2017-08-13T03:08:41.564Z,0
2017-08-13T03:09:22.465Z,0
2017-08-13T03:10:03.354Z,0
2017-08-13T03:10:44.251Z,0
2017-08-13T03:11:25.128Z,4
2017-08-13T03:12:06.003Z,0
2017-08-13T03:12:46.897Z,4
2017-08-13T03:13:27.786Z,4
2017-08-13T03:14:08.680Z,4
2017-08-13T03:14:49.570Z,0
2017-08-13T03:15:30.451Z,4
2017-08-13T03:16:11.339Z,4
2017-08-13T03:16:52.220Z,8
2017-08-13T03:17:33.129Z,4
2017-08-13T03:18:14.013Z,4
2017-08-13T03:18:54.888Z,4
2017-08-13T03:19:35.795Z,4
2017-08-13T03:20:16.675Z,4
2017-08-13T03:20:57.567Z,8
2017-08-13T03:21:38.458Z,8
2017-08-13T03:22:19.347Z,8
2017-08-13T03:23:00.224Z,8
2017-08-13T03:23:41.113Z,8
2017-08-13T03:24:22.006Z,8
2017-08-13T03:25:02.891Z,8
2017-08-13T03:25:43.783Z,16
2017-08-13T03:26:24.676Z,16
2017-08-13T03:27:05.565Z,20
2017-08-13T03:27:46.456Z,20
2017-08-13T03:28:27.346Z,20
2017-08-13T03:29:08.232Z,24
2017-08-13T03:29:49.120Z,24
2017-08-13T03:30:30.003Z,20
2017-08-13T03:31:10.910Z,24
2017-08-13T03:31:51.796Z,28
2017-08-13T03:32:32.685Z,28
2017-08-13T03:33:13.580Z,28
2017-08-13T03:33:54.470Z,32
2017-08-13T03:34:35.359Z,32
2017-08-13T03:35:16.255Z,36
2017-08-13T03:35:57.138Z,36
2017-08-13T03:36:38.022Z,40
2017-08-13T03:37:18.917Z,44
2017-08-13T03:37:59.811Z,48
2017-08-13T03:38:40.701Z,48
2017-08-13T03:39:21.608Z,52
2017-08-13T03:40:02.494Z,52
2017-08-13T03:40:43.390Z,56
2017-08-13T03:41:24.298Z,56
2017-08-13T03:42:05.177Z,56
2017-08-13T03:42:46.066Z,56
2017-08-13T03:43:26.961Z,60
2017-08-13T03:44:07.851Z,56
2017-08-13T03:44:48.731Z,56
2017-08-13T03:45:29.638Z,56
2017-08-13T03:46:10.506Z,52
2017-08-13T03:46:51.392Z,56
2017-08-13T03:47:32.303Z,60
2017-08-13T03:48:13.192Z,56
2017-08-13T03:48:54.089Z,56
2017-08-13T03:49:34.979Z,72
2017-08-13T03:50:15.874Z,84
2017-08-13T03:50:56.747Z,84
2017-08-13T03:51:37.649Z,88
2017-08-13T03:52:18.542Z,84
2017-08-13T03:52:59.465Z,92
2017-08-13T03:54:58.286Z,116
2017-08-13T03:55:39.170Z,128
2017-08-13T03:56:20.089Z,132
2017-08-13T03:57:00.968Z,144
2017-08-13T03:57:41.866Z,164
2017-08-13T03:58:22.770Z,168
2017-08-13T03:59:03.643Z,168
2017-08-13T03:59:44.505Z,168
2017-08-13T04:00:25.393Z,168
2017-08-13T04:01:06.302Z,176
2017-08-13T04:01:47.188Z,172
2017-08-13T04:02:28.068Z,172
2017-08-13T04:03:08.971Z,188
2017-08-13T04:03:49.836Z,204
2017-08-13T04:04:30.702Z,220
2017-08-13T04:05:11.572Z,232
2017-08-13T04:05:52.461Z,252
2017-08-13T04:06:33.359Z,288
2017-08-13T04:07:14.244Z,336
2017-08-13T04:07:55.111Z,368
2017-08-13T04:08:36.001Z,364
2017-08-13T04:09:16.896Z,356
2017-08-13T04:09:57.768Z,348
2017-08-13T04:10:38.645Z,360
2017-08-13T04:11:19.533Z,420
2017-08-13T04:12:00.424Z,516
2017-08-13T04:12:41.299Z,596
2017-08-13T04:13:22.174Z,616
2017-08-13T04:14:03.073Z,604
2017-08-13T04:14:43.967Z,620
2017-08-13T04:15:24.859Z,524
2017-08-13T04:16:05.747Z,452
2017-08-13T04:16:46.646Z,412
2017-08-13T04:17:27.529Z,384
2017-08-13T04:18:08.422Z,396
2017-08-13T04:18:49.321Z,460
2017-08-13T04:19:30.192Z,492
2017-08-13T04:20:11.069Z,504
2017-08-13T04:20:51.963Z,508
2017-08-13T04:21:32.863Z,540
2017-08-13T04:22:13.751Z,612
2017-08-13T04:22:54.641Z,648
2017-08-13T04:23:35.533Z,672
2017-08-13T04:24:16.409Z,660
2017-08-13T04:24:57.343Z,648
2017-08-13T04:25:38.227Z,692
2017-08-13T04:26:19.104Z,768
2017-08-13T04:27:00.077Z,848
2017-08-13T04:27:40.980Z,992
2017-08-13T04:28:21.862Z,1100
2017-08-13T04:29:02.751Z,1120
2017-08-13T04:29:43.632Z,1148
2017-08-13T04:30:24.528Z,1252
2017-08-13T04:31:05.412Z,1332
2017-08-13T04:31:46.293Z,1384
2017-08-13T04:32:27.195Z,1388
2017-08-13T04:33:08.073Z,1280
2017-08-13T04:33:48.956Z,1084
2017-08-13T04:34:29.857Z,940
2017-08-13T04:35:10.744Z,860
2017-08-13T04:35:51.632Z,836
2017-08-13T04:36:32.528Z,824
2017-08-13T04:37:13.409Z,844
2017-08-13T04:37:54.302Z,844
2017-08-13T04:38:35.191Z,892
2017-08-13T04:39:16.083Z,920
2017-08-13T04:39:56.972Z,944
2017-08-13T04:40:37.858Z,1088
2017-08-13T04:41:18.755Z,1024
2017-08-13T04:41:59.642Z,964
2017-08-13T04:42:40.525Z,948
2017-08-13T04:43:21.423Z,1052
2017-08-13T04:44:02.314Z,1316
2017-08-13T04:44:43.238Z,1708
2017-08-13T04:45:24.143Z,2036
2017-08-13T04:46:05.036Z,2336
2017-08-13T04:46:45.932Z,2388
2017-08-13T04:47:26.803Z,2320
2017-08-13T04:48:07.683Z,2348
2017-08-13T04:48:48.576Z,2340
2017-08-13T04:49:29.483Z,2308
2017-08-13T04:50:10.355Z,2392
2017-08-13T04:50:51.259Z,2252
2017-08-13T04:51:32.151Z,1980
2017-08-13T04:52:13.018Z,1904
2017-08-13T04:52:53.889Z,2096
2017-08-13T04:53:34.781Z,2036
2017-08-13T04:54:15.694Z,1992
2017-08-13T04:54:56.571Z,1940
2017-08-13T04:55:37.470Z,2236
2017-08-13T04:56:18.350Z,2248
2017-08-13T04:56:59.235Z,2356
2017-08-13T04:57:40.102Z,2432
2017-08-13T04:58:20.993Z,2196
2017-08-13T04:59:01.903Z,1996
2017-08-13T04:59:42.770Z,1896
2017-08-13T05:00:23.656Z,1808
2017-08-13T05:01:04.548Z,1512
2017-08-13T05:01:45.431Z,1396
2017-08-13T05:02:26.394Z,1240
2017-08-13T05:03:07.285Z,1388
2017-08-13T05:03:48.181Z,1452
2017-08-13T05:04:29.054Z,1592
2017-08-13T05:05:09.936Z,1780
2017-08-13T05:05:50.822Z,2164
2017-08-13T05:06:31.718Z,2100
2017-08-13T05:07:12.604Z,2060
2017-08-13T05:07:53.492Z,2348
2017-08-13T05:08:34.388Z,2932
2017-08-13T05:09:15.282Z,3260
2017-08-13T05:09:56.164Z,2776
2017-08-13T05:10:37.062Z,3256
2017-08-13T05:11:17.955Z,3820
2017-08-13T05:11:58.844Z,2680
2017-08-13T05:12:39.737Z,2124
2017-08-13T05:13:20.638Z,2424
2017-08-13T05:14:01.521Z,2400
2017-08-13T05:14:42.417Z,2276
2017-08-13T05:15:23.318Z,2276
2017-08-13T05:16:04.188Z,2008
2017-08-13T05:16:45.071Z,1764
2017-08-13T05:17:25.987Z,1808
2017-08-13T05:18:06.871Z,2432
2017-08-13T05:18:47.769Z,2640
2017-08-13T05:19:28.665Z,2796
2017-08-13T05:20:09.586Z,2736
2017-08-13T05:20:50.474Z,2004
2017-08-13T05:21:31.369Z,1420
2017-08-13T05:22:12.259Z,1444
2017-08-13T05:22:53.148Z,1816
2017-08-13T05:23:34.035Z,2228
2017-08-13T05:24:14.927Z,2340
2017-08-13T05:24:55.826Z,2056
2017-08-13T05:25:36.708Z,2012
2017-08-13T05:26:17.607Z,2072
2017-08-13T05:26:58.500Z,2488
2017-08-13T05:28:58.313Z,3496
2017-08-13T05:29:39.194Z,3452
2017-08-13T05:30:20.078Z,3148
2017-08-13T05:31:00.969Z,2876
2017-08-13T05:31:41.862Z,2752
2017-08-13T05:32:22.759Z,2756
2017-08-13T05:33:03.661Z,2564
2017-08-13T05:33:44.544Z,2424
2017-08-13T05:34:25.418Z,2592
2017-08-13T05:35:06.310Z,2924
2017-08-13T05:35:47.200Z,3284
2017-08-13T05:36:28.090Z,4028
2017-08-13T05:37:08.978Z,6276
2017-08-13T05:37:49.859Z,8316
2017-08-13T05:38:30.768Z,9240
2017-08-13T05:39:11.658Z,8924
2017-08-13T05:39:52.549Z,8644
2017-08-13T05:40:33.438Z,8856
2017-08-13T05:41:14.329Z,8900
2017-08-13T05:41:55.233Z,7364
2017-08-13T05:42:36.109Z,7160
2017-08-13T05:43:17.028Z,6332
2017-08-13T05:43:57.925Z,5204
2017-08-13T05:44:38.810Z,4292
2017-08-13T05:45:19.707Z,3756
2017-08-13T05:46:00.588Z,4080
2017-08-13T05:46:41.495Z,4556
2017-08-13T05:47:22.383Z,4612
2017-08-13T05:48:03.280Z,4636
2017-08-13T05:48:44.173Z,4488
2017-08-13T05:49:25.128Z,4108
2017-08-13T05:50:06.045Z,3912
2017-08-13T05:50:46.939Z,3900
2017-08-13T05:51:27.852Z,3972
2017-08-13T05:52:08.740Z,4112
2017-08-13T05:52:49.629Z,4172
2017-08-13T05:53:30.520Z,4096
2017-08-13T05:54:11.405Z,4224
2017-08-13T05:54:52.302Z,4340
2017-08-13T05:55:33.201Z,4316
2017-08-13T05:56:14.146Z,4236
2017-08-13T05:56:55.038Z,4192
2017-08-13T05:57:35.922Z,3992
2017-08-13T05:58:16.832Z,3588
2017-08-13T05:58:57.718Z,3288
2017-08-13T05:59:38.616Z,3468
2017-08-13T06:00:19.519Z,3680
2017-08-13T06:01:00.417Z,3832
2017-08-13T06:01:41.303Z,3924
2017-08-13T06:02:22.197Z,3936
2017-08-13T06:04:36.456Z,4024
2017-08-13T06:05:17.349Z,4176
2017-08-13T06:05:58.246Z,4144
2017-08-13T06:06:39.143Z,4232
2017-08-13T06:07:20.030Z,4404
2017-08-13T06:08:00.917Z,4332
2017-08-13T06:08:41.819Z,4148
2017-08-13T06:09:22.706Z,3908
2017-08-13T06:10:03.629Z,3776
2017-08-13T06:10:44.497Z,3868
2017-08-13T06:11:25.379Z,4632
2017-08-13T06:12:06.266Z,5588
2017-08-13T06:12:47.158Z,6748
2017-08-13T06:13:28.063Z,6792
2017-08-13T06:14:08.952Z,6480
2017-08-13T06:14:49.835Z,6912
2017-08-13T06:15:30.722Z,7272
2017-08-13T06:16:11.599Z,7340
2017-08-13T06:16:52.489Z,7424
2017-08-13T06:17:33.380Z,7716
2017-08-13T06:18:14.272Z,7848
2017-08-13T06:18:55.146Z,7520
2017-08-13T06:19:36.040Z,7328
2017-08-13T06:20:16.922Z,6928
2017-08-13T06:20:57.803Z,7404
2017-08-13T06:21:38.693Z,8272
2017-08-13T06:22:19.590Z,8844
2017-08-13T06:24:18.390Z,9032
2017-08-13T06:24:59.314Z,9556
2017-08-13T06:25:40.193Z,8576
2017-08-13T06:26:21.074Z,8644
2017-08-13T06:27:01.970Z,8652
2017-08-13T06:27:42.869Z,8500
2017-08-13T06:28:23.759Z,8484
2017-08-13T06:29:04.647Z,8688
2017-08-13T06:29:45.558Z,7732
2017-08-13T06:30:26.456Z,7460
2017-08-13T06:31:07.343Z,7352
2017-08-13T06:31:48.241Z,7196
2017-08-13T06:32:29.123Z,7020
2017-08-13T06:33:10.030Z,6916
2017-08-13T06:33:50.909Z,7328
2017-08-13T06:34:31.800Z,7748
2017-08-13T06:35:12.670Z,8756
2017-08-13T06:35:53.572Z,7092
2017-08-13T06:36:34.442Z,8772
2017-08-13T06:37:15.327Z,9168
2017-08-13T06:37:56.214Z,9368
2017-08-13T06:38:37.111Z,9468
2017-08-13T06:39:17.990Z,9592
2017-08-13T06:39:58.894Z,10704
2017-08-13T06:40:39.854Z,10648
2017-08-13T06:41:20.751Z,10536
2017-08-13T06:42:01.643Z,9648
2017-08-13T06:43:55.362Z,12084
2017-08-13T06:44:36.247Z,10416
2017-08-13T06:45:17.126Z,10904
2017-08-13T06:45:58.025Z,10068
2017-08-13T06:46:38.923Z,10452
2017-08-13T06:47:19.806Z,10972
2017-08-13T06:48:00.706Z,10848
2017-08-13T06:48:41.592Z,10900
2017-08-13T06:49:22.479Z,11024
2017-08-13T06:50:03.377Z,12632
2017-08-13T06:50:44.264Z,10448
2017-08-13T06:51:25.147Z,12396
2017-08-13T06:52:06.035Z,13316
2017-08-13T06:52:46.926Z,10600
2017-08-13T06:53:27.874Z,10608
2017-08-13T06:54:08.770Z,11484
2017-08-13T06:54:49.650Z,10760
2017-08-13T06:55:30.548Z,9844
2017-08-13T06:56:11.444Z,8160
2017-08-13T06:56:52.408Z,7052
2017-08-13T06:57:33.291Z,6448
2017-08-13T06:58:14.196Z,7720
2017-08-13T06:58:55.086Z,8660
2017-08-13T06:59:35.976Z,10272
2017-08-13T07:00:16.875Z,9508
2017-08-13T07:00:57.760Z,8652
2017-08-13T07:01:38.652Z,7876
2017-08-13T07:02:19.553Z,8472
2017-08-13T07:03:00.442Z,9016
2017-08-13T07:03:41.340Z,9884
2017-08-13T07:04:22.232Z,10784
2017-08-13T07:05:03.115Z,10964
2017-08-13T07:05:43.995Z,12528
2017-08-13T07:06:24.890Z,10068
2017-08-13T07:07:05.783Z,8256
2017-08-13T07:07:46.669Z,7716
2017-08-13T07:08:27.566Z,7716
2017-08-13T07:09:08.462Z,8132
2017-08-13T07:09:49.347Z,7852
2017-08-13T07:10:30.248Z,8176
2017-08-13T07:11:11.137Z,8908
2017-08-13T07:11:52.021Z,10504
2017-08-13T07:12:32.932Z,12660
2017-08-13T07:13:13.818Z,10512
2017-08-13T07:13:54.703Z,10220
2017-08-13T07:14:35.609Z,10332
2017-08-13T07:15:16.501Z,10396
2017-08-13T07:15:57.383Z,8868
2017-08-13T07:16:38.280Z,8956
2017-08-13T07:17:19.170Z,11124
2017-08-13T07:18:00.066Z,15516
2017-08-13T07:18:40.957Z,14916
2017-08-13T07:19:21.848Z,31616
2017-08-13T07:20:02.729Z,25184
2017-08-13T07:20:43.635Z,12692
2017-08-13T07:21:24.522Z,9824
2017-08-13T07:22:05.421Z,9004
2017-08-13T07:22:46.309Z,9096
2017-08-13T07:23:27.211Z,8384
2017-08-13T07:24:08.099Z,7992
2017-08-13T07:24:48.986Z,9644
2017-08-13T07:25:29.874Z,11164
2017-08-13T07:26:10.776Z,13188
2017-08-13T07:26:51.677Z,18080
2017-08-13T07:27:32.570Z,30336
2017-08-13T07:28:13.468Z,25056
2017-08-13T07:28:54.366Z,15816
2017-08-13T07:29:35.263Z,15476
2017-08-13T07:30:16.154Z,16864
2017-08-13T07:30:57.099Z,15696
2017-08-13T07:31:37.998Z,12096
2017-08-13T07:32:18.886Z,10468
2017-08-13T07:32:59.785Z,9896
2017-08-13T07:33:40.678Z,9452
2017-08-13T07:34:21.564Z,9788
2017-08-13T07:35:02.467Z,10672
2017-08-13T07:35:43.372Z,12904
2017-08-13T07:36:24.271Z,40672
2017-08-13T07:37:05.147Z,27808
2017-08-13T07:37:46.036Z,15552
2017-08-13T07:38:26.927Z,11756
2017-08-13T07:39:07.828Z,11636
2017-08-13T07:39:48.734Z,14968
2017-08-13T07:40:29.628Z,17888
2017-08-13T07:41:10.523Z,20704
2017-08-13T07:41:51.425Z,12532
2017-08-13T07:42:32.328Z,10292
2017-08-13T07:43:13.214Z,10272
2017-08-13T07:43:54.111Z,11164
2017-08-13T07:44:35.011Z,12908
2017-08-13T07:45:15.911Z,13148
2017-08-13T07:45:56.804Z,13964
2017-08-13T07:46:37.735Z,15240
2017-08-13T07:47:18.633Z,9336
2017-08-13T07:47:59.517Z,7764
2017-08-13T07:48:40.414Z,7572
2017-08-13T07:49:21.317Z,7572
2017-08-13T07:50:02.204Z,7832
2017-08-13T07:50:43.093Z,10348
2017-08-13T07:51:23.992Z,11388
2017-08-13T07:52:04.963Z,11900
2017-08-13T07:52:45.771Z,12508
2017-08-13T07:53:26.669Z,10096
2017-08-13T07:54:07.571Z,7064
2017-08-13T07:54:48.460Z,7368
2017-08-13T07:55:29.354Z,8168
2017-08-13T07:56:10.245Z,8924
2017-08-13T07:56:51.137Z,10408
2017-08-13T07:57:32.031Z,40256
2017-08-13T07:58:12.921Z,9592
2017-08-13T07:58:53.821Z,54912
2017-08-13T07:59:34.711Z,13480
2017-08-13T08:00:15.609Z,55744
2017-08-13T08:00:56.514Z,65248
2017-08-13T08:01:37.398Z,48128
2017-08-13T08:02:18.299Z,10984
2017-08-13T08:02:59.191Z,55424
2017-08-13T08:03:40.080Z,54496
2017-08-13T08:04:20.981Z,58176
2017-08-13T08:05:01.873Z,66688
2017-08-13T08:05:42.788Z,71552
2017-08-13T08:06:23.685Z,22144
2017-08-13T08:07:04.687Z,26720
2017-08-13T08:07:45.588Z,66368
2017-08-13T08:08:26.482Z,57184
2017-08-13T08:09:07.438Z,24768
2017-08-13T08:09:48.336Z,34304
2017-08-13T08:10:29.241Z,75104
2017-08-13T08:11:10.131Z,21920
2017-08-13T08:11:51.032Z,14656
2017-08-13T08:12:31.930Z,13712
2017-08-13T08:13:12.827Z,59296
2017-08-13T08:13:53.730Z,14336
2017-08-13T08:14:34.690Z,13140
2017-08-13T08:15:15.509Z,10616
2017-08-13T08:15:56.414Z,10888
2017-08-13T08:16:37.320Z,12900
2017-08-13T08:17:18.228Z,14880
2017-08-13T08:17:59.124Z,55936
2017-08-13T08:18:40.014Z,11188
2017-08-13T08:19:20.913Z,13980
2017-08-13T08:20:01.805Z,81664
2017-08-13T08:20:42.703Z,85376
2017-08-13T08:21:23.608Z,22144
2017-08-13T08:22:04.505Z,15500
2017-08-13T08:22:45.407Z,9756
2017-08-13T08:23:26.304Z,9576
2017-08-13T08:24:07.207Z,12200
2017-08-13T08:24:48.103Z,75968
2017-08-13T08:25:28.999Z,20000
2017-08-13T08:26:09.904Z,68096
2017-08-13T08:26:50.806Z,61888
2017-08-13T08:27:31.722Z,22528
2017-08-13T08:28:12.621Z,8252
2017-08-13T08:28:53.531Z,63040
2017-08-13T08:29:34.421Z,66560
2017-08-13T08:30:15.321Z,74304
2017-08-13T08:30:56.232Z,69088
2017-08-13T08:31:37.215Z,62944
2017-08-13T08:32:18.130Z,74176
2017-08-13T08:32:59.038Z,72640
2017-08-13T08:33:39.938Z,262140
2017-08-13T08:34:20.847Z,262140
2017-08-13T08:35:01.756Z,262140
2017-08-13T08:35:42.644Z,262140
2017-08-13T08:36:23.547Z,262140
2017-08-13T08:37:04.451Z,262140
2017-08-13T08:37:45.340Z,262140
2017-08-13T08:38:26.233Z,262140
2017-08-13T08:39:07.114Z,10104
2017-08-13T08:39:47.999Z,73248
2017-08-13T08:40:28.944Z,73824
2017-08-13T08:41:09.840Z,76416
2017-08-13T08:41:50.752Z,77856
2017-08-13T08:42:31.636Z,81216
2017-08-13T08:43:12.549Z,85088
2017-08-13T08:43:53.445Z,87616
2017-08-13T08:44:34.361Z,90304
2017-08-13T08:45:15.257Z,91744
2017-08-13T08:45:56.155Z,89632
2017-08-13T08:46:37.060Z,77952
2017-08-13T08:47:17.925Z,68640
2017-08-13T08:47:58.816Z,67232
2017-08-13T08:48:39.721Z,71840
2017-08-13T08:49:20.623Z,77408
2017-08-13T08:50:01.530Z,73824
2017-08-13T08:50:42.437Z,69536
2017-08-13T08:51:23.406Z,67712
2017-08-13T08:52:04.241Z,67328
2017-08-13T08:52:45.173Z,68768
2017-08-13T08:53:26.063Z,70976
2017-08-13T08:54:06.967Z,75648
2017-08-13T08:54:47.930Z,262140
2017-08-13T08:55:28.826Z,262140
2017-08-13T08:56:09.735Z,262140
2017-08-13T08:56:50.656Z,262140
2017-08-13T08:57:31.556Z,262140
2017-08-13T08:58:12.461Z,262140
2017-08-13T08:58:53.377Z,92960
2017-08-13T08:59:34.258Z,92032
2017-08-13T09:00:15.244Z,87936
2017-08-13T09:00:56.266Z,82048
2017-08-13T09:01:37.264Z,47744
2017-08-13T09:02:18.317Z,14692
2017-08-13T09:02:59.299Z,11152
2017-08-13T09:03:40.277Z,12152
2017-08-13T09:04:21.285Z,10260
2017-08-13T09:05:02.277Z,9024
2017-08-13T09:05:43.265Z,7300
2017-08-13T09:06:24.296Z,6076
2017-08-13T09:07:05.297Z,5992
2017-08-13T09:07:46.317Z,6000
2017-08-13T09:08:27.325Z,6024
2017-08-13T09:09:08.327Z,12988
2017-08-13T09:09:49.316Z,88672
2017-08-13T09:10:30.316Z,87616
2017-08-13T09:11:11.317Z,80320
2017-08-13T09:11:52.247Z,70272
2017-08-13T09:12:33.143Z,69952
2017-08-13T09:13:14.046Z,80960
2017-08-13T09:13:54.940Z,81760
2017-08-13T09:14:35.851Z,80928
2017-08-13T09:15:16.749Z,81568
2017-08-13T09:15:57.648Z,83008
2017-08-13T09:16:38.594Z,83968
2017-08-13T09:17:19.682Z,86112
2017-08-13T09:18:58.225Z,87232
2017-08-13T09:19:39.144Z,79488
2017-08-13T09:20:20.118Z,77920
2017-08-13T09:21:01.075Z,76704
2017-08-13T09:23:10.225Z,72800
2017-08-13T09:23:51.195Z,70176
2017-08-13T09:24:32.206Z,71680
2017-08-13T09:25:13.174Z,74432
2017-08-13T09:25:54.126Z,71904
2017-08-13T09:26:35.130Z,83776
2017-08-13T09:28:34.070Z,13032
2017-08-13T09:29:15.006Z,14112
2017-08-13T09:29:55.952Z,74048
2017-08-13T09:30:36.895Z,84064
2017-08-13T09:31:17.861Z,84288
2017-08-13T09:31:58.843Z,84064
2017-08-13T09:32:39.816Z,83840
2017-08-13T09:33:20.790Z,81600
2017-08-13T09:34:01.772Z,83616
2017-08-13T09:34:42.778Z,81792